Time;durP1;ratioP1;P1;durP2;ratioP2;P2;SDS_P1;SDS_P2;PMS_P1;PMS_P2;Temp;Humidity;BMP_temperature;BMP_pressure;BME280_temperature;BME280_humidity;BME280_pressure;Samples;Min_cycle;Max_cycle;Signal;HPM_P1;HPM_P2
2021/09/13 00:00:41;;;;;;;4.43;3.70;;;25.40;57.90;;;;;;6188793;28;81025;-65
2021/09/13 00:03:43;;;;;;;4.50;3.90;;;25.40;58.30;;;;;;6188909;28;81555;-65
2021/09/13 00:06:45;;;;;;;4.38;3.97;;;25.50;58.30;;;;;;6183649;28;80702;-65
2021/09/13 00:09:46;;;;;;;4.43;3.88;;;25.50;57.30;;;;;;6188098;28;81117;-65
2021/09/13 00:12:47;;;;;;;6.18;3.92;;;25.50;58.00;;;;;;6196619;28;80443;-65
2021/09/13 00:15:47;;;;;;;5.78;4.72;;;25.40;57.90;;;;;;6173828;28;81450;-65
2021/09/13 00:18:49;;;;;;;4.32;3.90;;;25.50;57.70;;;;;;6184509;28;81399;-65
2021/09/13 00:21:50;;;;;;;4.90;4.00;;;25.50;58.10;;;;;;6153272;28;82798;-65
2021/09/13 00:24:50;;;;;;;4.93;4.00;;;25.50;58.40;;;;;;6175892;28;81833;-65
2021/09/13 00:27:53;;;;;;;7.25;4.55;;;25.50;58.10;;;;;;6184194;28;80730;-65
2021/09/13 00:30:55;;;;;;;5.70;4.03;;;25.50;57.80;;;;;;6182018;28;81553;-66
2021/09/13 00:33:56;;;;;;;5.32;4.32;;;25.40;58.00;;;;;;6184744;28;81395;-64
2021/09/13 00:36:57;;;;;;;5.32;4.78;;;25.40;58.20;;;;;;6178473;28;80289;-64
2021/09/13 00:39:58;;;;;;;6.03;4.70;;;25.50;58.30;;;;;;6184204;28;80101;-64
2021/09/13 00:43:02;;;;;;;5.90;4.40;;;25.50;58.20;;;;;;6182707;28;83220;-64
2021/09/13 00:46:04;;;;;;;5.63;4.30;;;25.50;57.70;;;;;;6182755;28;83368;-64
2021/09/13 00:49:05;;;;;;;5.35;4.28;;;25.50;57.90;;;;;;6181761;28;81033;-64
2021/09/13 00:52:05;;;;;;;4.82;4.30;;;25.40;58.00;;;;;;6182067;28;81958;-64
2021/09/13 00:55:06;;;;;;;5.93;4.78;;;25.50;58.20;;;;;;6176610;28;81821;-64
2021/09/13 00:58:07;;;;;;;4.80;3.65;;;25.40;58.00;;;;;;6191438;28;80668;-64
2021/09/13 01:01:08;;;;;;;5.85;4.32;;;25.40;58.20;;;;;;6182361;28;81568;-64
2021/09/13 01:04:08;;;;;;;11.05;4.78;;;25.50;58.30;;;;;;6180388;28;82012;-65
2021/09/13 01:07:09;;;;;;;5.20;4.43;;;25.50;58.00;;;;;;6179120;28;80721;-64
2021/09/13 01:10:09;;;;;;;6.15;4.57;;;25.50;58.10;;;;;;6191415;28;81169;-65
2021/09/13 01:13:10;;;;;;;5.60;3.97;;;25.50;57.90;;;;;;6187457;28;80243;-64
2021/09/13 01:16:10;;;;;;;5.88;4.35;;;25.50;58.80;;;;;;6186074;28;81611;-64
2021/09/13 01:19:11;;;;;;;6.57;4.30;;;25.40;58.20;;;;;;6171294;28;81640;-64
2021/09/13 01:22:12;;;;;;;7.55;5.03;;;25.40;58.10;;;;;;6164762;28;81445;-64
2021/09/13 01:25:22;;;;;;;6.47;4.50;;;25.40;58.20;;;;;;6179826;28;85252;-64
2021/09/13 01:28:23;;;;;;;5.43;4.32;;;25.40;58.20;;;;;;6181716;28;80774;-64
2021/09/13 01:31:24;;;;;;;8.65;5.10;;;25.40;58.00;;;;;;6180579;28;83180;-64
2021/09/13 01:34:24;;;;;;;5.78;4.60;;;25.50;58.10;;;;;;6171358;28;81981;-64
2021/09/13 01:37:29;;;;;;;6.40;4.35;;;25.40;58.20;;;;;;6180447;28;82409;-65
2021/09/13 01:40:37;;;;;;;6.78;5.30;;;25.40;58.00;;;;;;6180226;28;80790;-65
2021/09/13 01:43:39;;;;;;;8.00;4.60;;;25.40;58.00;;;;;;6180593;28;82906;-65
2021/09/13 01:46:40;;;;;;;6.80;5.28;;;25.40;58.00;;;;;;6180510;28;82234;-65
2021/09/13 01:49:40;;;;;;;5.78;4.38;;;25.40;58.10;;;;;;6180196;28;83556;-64
2021/09/13 01:52:41;;;;;;;6.43;4.80;;;25.40;58.10;;;;;;6181638;28;80850;-65
2021/09/13 01:55:41;;;;;;;6.88;5.30;;;25.40;58.10;;;;;;6172996;28;83258;-64
2021/09/13 01:58:44;;;;;;;6.22;5.00;;;25.40;58.30;;;;;;6175968;28;81904;-64
2021/09/13 02:01:45;;;;;;;5.85;4.80;;;25.40;58.20;;;;;;6180862;28;82702;-64
2021/09/13 02:04:46;;;;;;;5.60;4.93;;;25.40;58.10;;;;;;6180609;28;82366;-64
2021/09/13 02:07:47;;;;;;;8.13;5.75;;;25.40;57.90;;;;;;6185149;28;83141;-65
2021/09/13 02:10:48;;;;;;;6.85;5.35;;;25.40;58.00;;;;;;6172069;28;80761;-65
2021/09/13 02:13:49;;;;;;;6.22;4.70;;;25.40;58.10;;;;;;6175050;28;81797;-65
2021/09/13 02:16:49;;;;;;;8.20;5.05;;;25.40;58.10;;;;;;6180111;28;83340;-64
2021/09/13 02:19:50;;;;;;;5.93;4.20;;;25.40;58.10;;;;;;6163679;28;83269;-64
2021/09/13 02:22:51;;;;;;;6.50;5.43;;;25.40;58.00;;;;;;6170839;28;82037;-64
2021/09/13 02:25:52;;;;;;;7.72;5.55;;;25.40;57.90;;;;;;6171329;28;82896;-64
2021/09/13 02:28:53;;;;;;;5.70;4.68;;;25.40;57.90;;;;;;6180893;28;81597;-64
2021/09/13 02:31:53;;;;;;;6.07;4.68;;;25.40;57.80;;;;;;6178953;28;82460;-64
2021/09/13 02:34:54;;;;;;;5.53;4.55;;;25.40;57.90;;;;;;6176724;28;82998;-63
2021/09/13 02:37:55;;;;;;;6.80;5.00;;;25.40;57.90;;;;;;6179607;28;83369;-64
2021/09/13 02:40:56;;;;;;;5.90;4.70;;;25.40;58.00;;;;;;6181600;28;80550;-65
2021/09/13 02:43:56;;;;;;;5.35;4.55;;;25.40;58.20;;;;;;6177567;28;82680;-67
2021/09/13 02:46:57;;;;;;;5.80;4.95;;;25.40;58.00;;;;;;6175292;28;83229;-66
2021/09/13 02:49:58;;;;;;;8.15;5.63;;;25.40;58.00;;;;;;6177746;28;82719;-66
2021/09/13 02:53:00;;;;;;;6.35;4.78;;;25.40;58.00;;;;;;6179770;28;81617;-66
2021/09/13 02:56:01;;;;;;;6.15;4.57;;;25.40;58.00;;;;;;6179197;28;82994;-66
2021/09/13 02:59:05;;;;;;;6.00;4.57;;;25.40;57.80;;;;;;6180023;28;80581;-66
2021/09/13 03:02:06;;;;;;;6.80;4.85;;;25.40;58.00;;;;;;6179544;28;83516;-66
2021/09/13 03:05:07;;;;;;;5.57;4.88;;;25.40;58.20;;;;;;6181019;28;81175;-66
2021/09/13 03:08:07;;;;;;;5.90;5.05;;;25.40;58.20;;;;;;6180499;28;81723;-67
2021/09/13 03:11:08;;;;;;;6.65;5.45;;;25.40;58.10;;;;;;6177332;28;83253;-67
2021/09/13 03:14:09;;;;;;;8.68;5.32;;;25.40;58.20;;;;;;6181236;28;83266;-67
2021/09/13 03:17:10;;;;;;;8.02;5.47;;;25.40;58.20;;;;;;6169375;28;83065;-67
2021/09/13 03:20:11;;;;;;;6.95;5.20;;;25.40;58.20;;;;;;6148343;28;82573;-66
2021/09/13 03:23:11;;;;;;;12.13;5.35;;;25.40;58.10;;;;;;6149651;28;83408;-66
2021/09/13 03:26:12;;;;;;;33.90;5.45;;;25.40;58.20;;;;;;6152728;28;80331;-66
2021/09/13 03:29:13;;;;;;;6.40;5.10;;;25.40;58.20;;;;;;6154114;28;81575;-66
2021/09/13 03:32:14;;;;;;;11.82;5.50;;;25.40;58.20;;;;;;6147511;28;81984;-64
2021/09/13 03:35:16;;;;;;;9.85;6.03;;;25.40;58.70;;;;;;6143759;28;81838;-64
2021/09/13 03:38:16;;;;;;;19.80;6.45;;;25.40;58.20;;;;;;6146169;28;81130;-64
2021/09/13 03:41:17;;;;;;;8.57;6.50;;;25.40;58.00;;;;;;6153471;28;81351;-64
2021/09/13 03:44:18;;;;;;;11.25;6.65;;;25.30;57.70;;;;;;6153540;28;82215;-65
2021/09/13 03:47:18;;;;;;;8.40;6.40;;;25.30;57.80;;;;;;6159820;28;83181;-65
2021/09/13 03:50:23;;;;;;;8.53;6.07;;;25.40;58.00;;;;;;6184021;28;80532;-64
2021/09/13 03:53:26;;;;;;;12.98;6.93;;;25.40;57.80;;;;;;6170471;28;82221;-65
2021/09/13 03:56:27;;;;;;;8.52;6.20;;;25.40;58.10;;;;;;6182451;28;82666;-64
2021/09/13 03:59:28;;;;;;;8.05;6.28;;;25.30;58.00;;;;;;6173063;28;83118;-66
2021/09/13 04:02:29;;;;;;;8.80;6.95;;;25.30;57.90;;;;;;6179140;28;83308;-67
2021/09/13 04:05:31;;;;;;;9.63;6.35;;;25.30;58.00;;;;;;6181821;28;80865;-65
2021/09/13 04:12:48;;;;;;;10.98;7.03;;;25.30;57.90;;;;;;6111687;28;80377;-65
2021/09/13 04:16:07;;;;;;;15.57;6.72;;;25.30;57.70;;;;;;6181936;28;80625;-65
2021/09/13 04:19:28;;;;;;;10.07;7.20;;;25.40;57.90;;;;;;6173228;28;84786;-66
2021/09/13 04:22:46;;;;;;;12.23;7.07;;;25.30;58.10;;;;;;6176985;28;83337;-65
2021/09/13 04:25:58;;;;;;;14.35;7.35;;;25.30;58.20;;;;;;6182018;28;81928;-65
2021/09/13 04:29:13;;;;;;;14.95;8.73;;;25.30;58.30;;;;;;6183066;28;80394;-65
2021/09/13 04:32:26;;;;;;;23.20;8.35;;;25.30;58.50;;;;;;6183265;28;83060;-65
2021/09/13 04:35:36;;;;;;;15.52;7.78;;;25.30;58.00;;;;;;6183748;28;80532;-64
2021/09/13 04:38:55;;;;;;;131.45;16.05;;;25.30;57.90;;;;;;6182071;28;80351;-65
2021/09/13 04:42:12;;;;;;;14.73;7.93;;;25.30;57.70;;;;;;6178772;28;83347;-64
2021/09/13 04:45:32;;;;;;;13.07;8.35;;;25.30;58.00;;;;;;6183513;28;82981;-64
2021/09/13 04:48:53;;;;;;;15.02;8.10;;;25.30;57.90;;;;;;6172900;28;80726;-64
2021/09/13 04:52:13;;;;;;;12.10;7.95;;;25.30;58.10;;;;;;6181436;28;83102;-64
2021/09/13 04:55:21;;;;;;;14.00;8.95;;;25.30;58.10;;;;;;6155018;28;87258;-64
2021/09/13 04:58:22;;;;;;;15.30;8.77;;;25.40;58.10;;;;;;6133331;28;81723;-64
2021/09/13 05:01:22;;;;;;;17.15;8.90;;;25.40;58.20;;;;;;6182937;28;80760;-64
2021/09/13 05:04:23;;;;;;;12.98;8.05;;;25.40;58.30;;;;;;6181440;28;80257;-64
2021/09/13 05:07:23;;;;;;;17.92;9.02;;;25.40;58.40;;;;;;6177944;28;80696;-65
2021/09/13 05:10:24;;;;;;;19.48;9.18;;;25.40;58.40;;;;;;6181178;28;83407;-65
2021/09/13 05:13:25;;;;;;;15.02;8.63;;;25.30;58.40;;;;;;6178718;28;82689;-64
2021/09/13 05:16:26;;;;;;;13.63;8.70;;;25.40;59.00;;;;;;6172686;28;83055;-65
2021/09/13 05:19:27;;;;;;;18.77;9.40;;;25.40;58.30;;;;;;6174505;28;81697;-65
2021/09/13 05:22:28;;;;;;;11.40;8.20;;;25.40;58.30;;;;;;6175938;28;80485;-64
2021/09/13 05:25:28;;;;;;;14.18;8.90;;;25.40;58.30;;;;;;6175305;28;80457;-65
2021/09/13 05:28:29;;;;;;;14.57;8.57;;;25.30;58.40;;;;;;6179294;28;81979;-65
2021/09/13 05:31:32;;;;;;;17.73;9.23;;;25.40;58.90;;;;;;6179957;28;82947;-65
2021/09/13 05:34:33;;;;;;;13.57;8.27;;;25.40;58.40;;;;;;6177787;28;82620;-63
2021/09/13 05:37:33;;;;;;;16.98;8.43;;;25.40;58.30;;;;;;6178236;28;80399;-63
2021/09/13 05:40:35;;;;;;;10.93;8.48;;;25.40;58.20;;;;;;6179792;28;81659;-65
2021/09/13 05:43:35;;;;;;;11.25;9.20;;;25.40;58.40;;;;;;6180841;28;83165;-65
2021/09/13 05:46:36;;;;;;;13.85;9.13;;;25.40;58.40;;;;;;6180631;28;82954;-65
2021/09/13 05:49:37;;;;;;;17.50;11.48;;;25.40;58.10;;;;;;6172556;28;82651;-63
2021/09/13 05:52:39;;;;;;;16.67;10.38;;;25.40;58.10;;;;;;6179204;28;82864;-63
2021/09/13 05:55:43;;;;;;;17.35;11.80;;;25.40;57.90;;;;;;6176774;28;84387;-64
2021/09/13 05:58:45;;;;;;;19.60;10.90;;;25.40;57.70;;;;;;6177244;28;84410;-65
2021/09/13 06:01:46;;;;;;;15.35;11.05;;;25.40;57.50;;;;;;6178390;28;85801;-64
2021/09/13 06:04:47;;;;;;;14.98;10.85;;;25.30;57.80;;;;;;6175268;28;85527;-64
2021/09/13 06:07:50;;;;;;;15.38;10.32;;;25.30;57.40;;;;;;6176308;28;86049;-64
2021/09/13 06:10:54;;;;;;;13.23;10.75;;;25.30;57.40;;;;;;6151054;28;84424;-63
2021/09/13 06:13:57;;;;;;;20.08;10.48;;;25.30;57.50;;;;;;6161415;28;84532;-63
2021/09/13 06:16:59;;;;;;;14.95;11.30;;;25.30;58.00;;;;;;6176738;28;85442;-63
2021/09/13 06:19:59;;;;;;;14.85;11.10;;;25.30;57.50;;;;;;6178573;28;82904;-64
2021/09/13 06:23:00;;;;;;;17.77;11.15;;;25.30;57.40;;;;;;6173640;28;84249;-64
2021/09/13 06:26:05;;;;;;;26.42;11.00;;;25.30;57.40;;;;;;6176024;28;85701;-65
2021/09/13 06:29:07;;;;;;;16.10;11.82;;;25.30;57.50;;;;;;6169217;28;90468;-65
2021/09/13 06:32:07;;;;;;;17.52;11.40;;;25.30;57.60;;;;;;6177988;28;82841;-64
2021/09/13 06:35:08;;;;;;;24.60;11.88;;;25.30;57.40;;;;;;6176221;28;86032;-64
2021/09/13 06:38:21;;;;;;;17.45;11.15;;;25.30;57.50;;;;;;6167129;28;85848;-65
2021/09/13 06:41:21;;;;;;;16.35;12.02;;;25.30;57.80;;;;;;6178447;28;84201;-65
2021/09/13 06:44:25;;;;;;;17.67;11.85;;;25.30;57.50;;;;;;6175044;28;84031;-65
2021/09/13 06:50:30;;;;;;;20.67;11.48;;;25.30;58.00;;;;;;6167683;28;83198;-66
2021/09/13 06:53:30;;;;;;;17.55;12.60;;;25.30;58.00;;;;;;6176705;28;84695;-65
2021/09/13 06:56:31;;;;;;;65.35;29.50;;;25.30;57.70;;;;;;6178908;28;85812;-65
2021/09/13 06:59:31;;;;;;;183.63;70.57;;;25.30;57.60;;;;;;6177712;28;84412;-65
2021/09/13 07:02:32;;;;;;;258.88;106.78;;;25.30;57.70;;;;;;6170807;28;91006;-66
2021/09/13 07:05:32;;;;;;;258.73;102.65;;;25.30;57.70;;;;;;6166861;28;85543;-66
2021/09/13 07:08:33;;;;;;;214.65;89.18;;;25.30;58.20;;;;;;6162677;28;85415;-65
2021/09/13 07:11:33;;;;;;;176.05;70.28;;;25.30;57.80;;;;;;6176845;28;85371;-65
2021/09/13 07:14:35;;;;;;;159.50;66.30;;;25.30;57.80;;;;;;6174537;28;84787;-64
2021/09/13 07:17:35;;;;;;;164.27;62.80;;;25.30;57.80;;;;;;6180354;28;83383;-64
2021/09/13 07:20:36;;;;;;;135.85;57.45;;;25.30;57.80;;;;;;6177132;28;84020;-64
2021/09/13 07:23:37;;;;;;;127.28;53.90;;;25.40;57.90;;;;;;6169954;28;83366;-65
2021/09/13 07:26:37;;;;;;;106.05;46.55;;;25.40;57.90;;;;;;6181653;28;84015;-66
2021/09/13 07:29:37;;;;;;;96.40;42.72;;;25.40;57.70;;;;;;6176177;28;83223;-67
2021/09/13 07:32:38;;;;;;;85.65;36.83;;;25.40;57.70;;;;;;6180597;28;84215;-65
2021/09/13 07:35:38;;;;;;;82.15;35.45;;;25.40;57.70;;;;;;6178289;28;85676;-65
2021/09/13 07:38:39;;;;;;;76.03;34.33;;;25.50;57.90;;;;;;6173507;28;83039;-65
2021/09/13 07:41:40;;;;;;;69.65;31.40;;;25.50;57.90;;;;;;6169884;28;83743;-65
2021/09/13 07:44:40;;;;;;;66.65;31.30;;;25.50;57.80;;;;;;6166053;28;83188;-64
2021/09/13 07:47:40;;;;;;;63.05;27.33;;;25.50;57.80;;;;;;6177064;28;83672;-64
2021/09/13 07:50:41;;;;;;;51.80;25.20;;;25.60;57.90;;;;;;6174584;28;83568;-65
2021/09/13 07:53:41;;;;;;;45.80;23.77;;;25.60;57.80;;;;;;6181241;28;83220;-64
2021/09/13 07:56:42;;;;;;;46.33;22.95;;;25.60;57.80;;;;;;6180285;28;84370;-65
2021/09/13 07:59:42;;;;;;;40.67;20.95;;;25.60;57.90;;;;;;6175522;28;84030;-64
2021/09/13 08:02:43;;;;;;;37.80;20.67;;;25.60;58.10;;;;;;6181022;28;84358;-64
2021/09/13 08:05:43;;;;;;;34.60;19.70;;;25.60;57.90;;;;;;6181338;28;82928;-66
2021/09/13 08:08:44;;;;;;;32.45;19.00;;;25.50;57.90;;;;;;6177936;28;83366;-65
2021/09/13 08:11:44;;;;;;;35.33;19.52;;;25.60;57.90;;;;;;6178493;28;83220;-64
2021/09/13 08:14:46;;;;;;;38.25;19.52;;;25.50;57.90;;;;;;6180380;28;83139;-65
2021/09/13 08:17:46;;;;;;;33.55;17.50;;;25.60;57.90;;;;;;6178903;28;83972;-65
2021/09/13 08:20:47;;;;;;;35.08;17.77;;;25.50;57.80;;;;;;6180285;28;82838;-65
2021/09/13 08:23:49;;;;;;;30.67;16.90;;;25.50;57.90;;;;;;6185589;28;84250;-64
2021/09/13 08:26:50;;;;;;;29.77;16.17;;;25.50;58.00;;;;;;6179984;28;84023;-62
2021/09/13 08:29:50;;;;;;;23.35;14.57;;;25.60;58.40;;;;;;6178508;28;83485;-62
2021/09/13 08:32:51;;;;;;;23.25;14.90;;;25.60;58.80;;;;;;6181093;28;83611;-62
2021/09/13 08:35:53;;;;;;;28.77;15.00;;;25.60;58.90;;;;;;6170815;28;84629;-62
2021/09/13 08:38:54;;;;;;;24.83;15.60;;;25.70;59.00;;;;;;6178907;28;85957;-62
2021/09/13 08:41:54;;;;;;;21.73;14.23;;;25.60;59.10;;;;;;6180373;28;83091;-63
2021/09/13 08:44:55;;;;;;;22.17;14.32;;;25.70;58.90;;;;;;6180001;28;83093;-63
2021/09/13 08:54:05;;;;;;;22.10;13.05;;;25.70;59.20;;;;;;6181326;28;82812;-63
2021/09/13 08:57:07;;;;;;;20.25;13.70;;;25.70;59.20;;;;;;6180203;28;84265;-64
2021/09/13 09:00:07;;;;;;;19.70;11.98;;;25.70;59.00;;;;;;6175809;28;83360;-65
2021/09/13 09:03:08;;;;;;;20.80;12.93;;;25.70;58.90;;;;;;6176478;28;83444;-63
2021/09/13 09:06:08;;;;;;;19.65;12.05;;;25.70;59.10;;;;;;6179968;28;83357;-64
2021/09/13 09:09:09;;;;;;;20.17;12.82;;;25.70;59.10;;;;;;6179081;28;84535;-63
2021/09/13 09:12:09;;;;;;;21.75;11.93;;;25.70;59.10;;;;;;6177928;28;82963;-63
2021/09/13 09:15:10;;;;;;;17.67;12.55;;;25.70;59.20;;;;;;6178983;28;84100;-63
2021/09/13 09:18:10;;;;;;;19.02;11.43;;;25.70;59.20;;;;;;6170064;28;83100;-63
2021/09/13 09:21:11;;;;;;;20.77;12.55;;;25.60;59.10;;;;;;6178671;28;82977;-64
2021/09/13 09:24:12;;;;;;;18.95;12.85;;;25.70;59.10;;;;;;6180435;28;90065;-63
2021/09/13 09:27:12;;;;;;;19.27;12.30;;;25.60;59.10;;;;;;6180650;28;83124;-64
2021/09/13 09:30:13;;;;;;;17.23;11.88;;;25.60;59.20;;;;;;6174791;28;82813;-64
2021/09/13 09:33:13;;;;;;;21.30;13.02;;;25.60;59.40;;;;;;6169655;28;84036;-64
2021/09/13 09:36:14;;;;;;;16.50;12.40;;;25.60;59.80;;;;;;6168514;28;83463;-64
2021/09/13 09:39:14;;;;;;;20.67;12.23;;;25.60;60.50;;;;;;6178669;28;83525;-63
2021/09/13 09:42:15;;;;;;;19.15;11.88;;;25.60;62.40;;;;;;6179079;28;83533;-63
2021/09/13 09:45:15;;;;;;;22.23;11.73;;;25.60;62.60;;;;;;6179340;28;83363;-64
2021/09/13 09:48:16;;;;;;;23.55;12.48;;;25.70;62.50;;;;;;6180677;28;83724;-64
2021/09/13 09:51:16;;;;;;;18.92;11.82;;;25.70;62.70;;;;;;6174450;28;85428;-63
2021/09/13 09:54:17;;;;;;;16.67;12.13;;;25.70;62.60;;;;;;6177667;28;84055;-64
2021/09/13 09:57:17;;;;;;;17.02;11.95;;;25.70;62.00;;;;;;6176956;28;86129;-63
2021/09/13 10:00:18;;;;;;;21.65;12.27;;;25.70;62.00;;;;;;6178481;28;83430;-64
2021/09/13 10:03:18;;;;;;;17.85;12.40;;;25.70;62.00;;;;;;6178439;28;83215;-64
2021/09/13 10:06:20;;;;;;;16.48;11.75;;;25.70;61.50;;;;;;6179408;28;83291;-64
2021/09/13 10:09:20;;;;;;;18.52;11.70;;;25.80;61.20;;;;;;6178586;28;84259;-64
2021/09/13 10:12:21;;;;;;;21.55;11.98;;;25.80;61.00;;;;;;6177794;28;84148;-63
2021/09/13 10:15:21;;;;;;;17.40;12.32;;;25.80;60.70;;;;;;6177841;28;83870;-64
2021/09/13 10:18:22;;;;;;;17.67;11.27;;;25.80;61.30;;;;;;6178096;28;89417;-64
2021/09/13 10:21:22;;;;;;;20.33;11.23;;;25.80;60.60;;;;;;6166128;28;82654;-65
2021/09/13 10:24:23;;;;;;;18.88;12.70;;;25.90;60.30;;;;;;6174419;28;83277;-64
2021/09/13 10:27:25;;;;;;;14.85;10.63;;;25.90;60.10;;;;;;6179897;28;83994;-64
2021/09/13 10:30:26;;;;;;;18.05;11.55;;;25.90;59.80;;;;;;6179075;28;83461;-64
2021/09/13 10:33:26;;;;;;;15.50;10.85;;;25.90;59.80;;;;;;6179368;28;84266;-64
2021/09/13 10:36:26;;;;;;;15.80;10.35;;;25.90;59.70;;;;;;6177120;28;83518;-64
2021/09/13 10:39:27;;;;;;;16.67;10.90;;;25.90;59.60;;;;;;6176191;28;84045;-64
2021/09/13 10:42:27;;;;;;;16.42;11.30;;;26.00;59.60;;;;;;6176368;28;84033;-64
2021/09/13 10:45:28;;;;;;;13.43;10.25;;;26.00;59.50;;;;;;6178175;28;83032;-64
2021/09/13 10:48:29;;;;;;;17.55;11.52;;;26.00;59.40;;;;;;6181349;28;84248;-65
2021/09/13 10:51:29;;;;;;;18.73;12.00;;;26.00;59.40;;;;;;6180013;28;83251;-64
2021/09/13 10:54:30;;;;;;;22.90;12.48;;;26.00;59.10;;;;;;6177874;28;83247;-64
2021/09/13 10:57:30;;;;;;;26.27;15.23;;;26.00;58.70;;;;;;6172596;28;83143;-64
2021/09/13 11:00:31;;;;;;;23.88;15.02;;;26.10;58.40;;;;;;6181446;28;84488;-65
2021/09/13 11:03:36;;;;;;;26.45;15.70;;;26.10;58.20;;;;;;6179375;28;83529;-64
2021/09/13 11:06:38;;;;;;;27.85;16.90;;;26.10;58.10;;;;;;6175267;28;82948;-64
2021/09/13 11:09:38;;;;;;;34.50;18.42;;;26.10;58.10;;;;;;6180814;28;83009;-64
2021/09/13 11:12:39;;;;;;;30.70;17.85;;;26.10;58.10;;;;;;6180134;28;83552;-63
2021/09/13 11:15:39;;;;;;;27.85;17.42;;;26.10;58.10;;;;;;6176335;28;83123;-64
2021/09/13 11:18:41;;;;;;;23.75;15.52;;;26.10;58.20;;;;;;6180589;28;84192;-63
2021/09/13 11:21:42;;;;;;;20.80;14.82;;;26.10;58.10;;;;;;6182180;28;83057;-66
2021/09/13 11:24:43;;;;;;;27.73;13.52;;;26.10;58.20;;;;;;6182774;28;83084;-65
2021/09/13 11:27:44;;;;;;;19.92;12.10;;;26.10;57.90;;;;;;6179288;28;84244;-65
2021/09/13 11:30:45;;;;;;;16.75;12.40;;;26.10;57.70;;;;;;6179004;28;84319;-65
2021/09/13 11:33:45;;;;;;;19.17;11.63;;;26.10;57.70;;;;;;6182657;28;83085;-65
2021/09/13 11:36:46;;;;;;;16.95;11.52;;;26.10;57.60;;;;;;6181296;28;83753;-65
2021/09/13 11:39:48;;;;;;;18.35;12.15;;;26.10;57.60;;;;;;6174586;28;82925;-65
2021/09/13 11:42:48;;;;;;;16.67;11.75;;;26.10;57.50;;;;;;6180412;28;82930;-65
2021/09/13 11:45:50;;;;;;;19.23;12.13;;;26.10;57.10;;;;;;6181099;28;84102;-65
2021/09/13 11:48:51;;;;;;;16.52;11.27;;;26.10;57.20;;;;;;6180303;28;83273;-65
2021/09/13 11:51:52;;;;;;;18.35;11.65;;;26.10;57.80;;;;;;6178504;28;83467;-64
2021/09/13 11:54:54;;;;;;;16.25;11.30;;;26.10;57.20;;;;;;6174304;28;83534;-64
2021/09/13 11:57:58;;;;;;;17.00;11.35;;;26.10;57.20;;;;;;6171418;28;84804;-64
2021/09/13 12:00:58;;;;;;;19.90;11.52;;;26.10;57.00;;;;;;6176177;28;83297;-65
2021/09/13 12:03:59;;;;;;;15.93;10.63;;;26.10;57.10;;;;;;6174449;28;83303;-64
2021/09/13 12:06:59;;;;;;;17.70;10.85;;;26.00;57.10;;;;;;6177010;28;83018;-64
2021/09/13 12:10:00;;;;;;;18.27;11.23;;;26.10;57.10;;;;;;6173835;28;83137;-64
2021/09/13 12:13:01;;;;;;;16.50;11.25;;;26.10;57.20;;;;;;6173360;28;83242;-64
2021/09/13 12:16:01;;;;;;;15.57;12.15;;;26.10;57.10;;;;;;6178209;28;83654;-64
2021/09/13 12:19:02;;;;;;;17.08;10.63;;;26.10;57.20;;;;;;6176866;28;82802;-63
2021/09/13 12:22:03;;;;;;;15.52;11.80;;;26.10;57.20;;;;;;6177997;28;83857;-63
2021/09/13 12:25:03;;;;;;;14.40;11.15;;;26.10;57.10;;;;;;6176524;28;83059;-64
2021/09/13 12:28:04;;;;;;;17.95;11.02;;;26.10;57.00;;;;;;6173028;28;83963;-64
2021/09/13 12:31:04;;;;;;;13.98;11.25;;;26.10;57.00;;;;;;6181504;28;83646;-65
2021/09/13 12:34:05;;;;;;;16.70;11.82;;;26.10;57.10;;;;;;6181201;28;84874;-63
2021/09/13 12:37:06;;;;;;;16.20;11.23;;;26.10;57.00;;;;;;6171225;28;84021;-65
2021/09/13 12:40:09;;;;;;;15.65;11.52;;;26.10;57.20;;;;;;6181048;28;83326;-65
2021/09/13 12:43:10;;;;;;;13.73;10.70;;;26.10;57.00;;;;;;6179118;28;83889;-65
2021/09/13 12:46:10;;;;;;;16.40;11.18;;;26.10;57.00;;;;;;6179883;28;83588;-65
2021/09/13 12:49:11;;;;;;;13.07;10.55;;;26.10;56.90;;;;;;6178175;28;84328;-65
2021/09/13 12:52:11;;;;;;;18.30;11.15;;;26.20;56.90;;;;;;6175474;28;83452;-65
2021/09/13 12:55:12;;;;;;;13.25;9.77;;;26.20;57.10;;;;;;6175414;28;83584;-65
2021/09/13 12:58:12;;;;;;;14.75;10.95;;;26.20;56.90;;;;;;6183173;28;82922;-65
2021/09/13 13:01:13;;;;;;;14.00;11.55;;;26.20;56.90;;;;;;6183005;28;82862;-65
2021/09/13 13:04:13;;;;;;;14.57;10.80;;;26.20;56.90;;;;;;6180602;28;83535;-65
2021/09/13 13:07:18;;;;;;;15.75;10.35;;;26.10;57.20;;;;;;6174588;28;83451;-64
2021/09/13 13:10:20;;;;;;;19.20;11.30;;;26.20;56.90;;;;;;6178173;28;86065;-64
2021/09/13 13:13:21;;;;;;;18.48;11.45;;;26.20;56.90;;;;;;6179573;28;83053;-65
2021/09/13 13:16:21;;;;;;;13.40;10.43;;;26.10;57.00;;;;;;6178624;28;83377;-65
2021/09/13 13:19:22;;;;;;;13.38;9.63;;;26.20;56.90;;;;;;6176795;28;82747;-65
2021/09/13 13:22:22;;;;;;;18.63;10.85;;;26.10;56.30;;;;;;6182116;28;83500;-65
2021/09/13 13:25:23;;;;;;;15.82;10.77;;;26.10;56.60;;;;;;6180863;28;82705;-65
2021/09/13 13:28:25;;;;;;;16.13;9.65;;;26.10;56.40;;;;;;6180304;28;83443;-64
2021/09/13 13:31:25;;;;;;;14.70;9.75;;;26.10;56.30;;;;;;6181122;28;83978;-64
2021/09/13 13:34:30;;;;;;;19.92;11.00;;;26.10;56.30;;;;;;6181190;28;81055;-66
2021/09/13 13:37:30;;;;;;;19.38;11.73;;;26.10;56.30;;;;;;6180168;28;83160;-66
2021/09/13 13:40:30;;;;;;;16.67;10.63;;;26.10;56.50;;;;;;6176923;28;83537;-67
2021/09/13 13:43:31;;;;;;;19.65;11.27;;;26.10;56.50;;;;;;6158579;28;82895;-66
2021/09/13 13:46:32;;;;;;;14.45;9.98;;;26.10;56.60;;;;;;6178679;28;83552;-66
2021/09/13 13:49:32;;;;;;;18.77;11.32;;;26.10;56.60;;;;;;6177053;28;83570;-67
2021/09/13 13:52:33;;;;;;;17.40;11.02;;;26.10;56.70;;;;;;6179988;28;83862;-66
2021/09/13 13:55:33;;;;;;;16.40;10.60;;;26.10;56.80;;;;;;6178119;28;83915;-67
2021/09/13 13:58:34;;;;;;;15.65;10.13;;;26.10;56.90;;;;;;6177739;28;82811;-65
2021/09/13 14:01:34;;;;;;;13.02;8.95;;;26.10;56.90;;;;;;6179034;28;83220;-66
2021/09/13 14:04:35;;;;;;;16.02;9.68;;;26.10;56.90;;;;;;6177713;28;82953;-66
2021/09/13 14:07:35;;;;;;;14.82;8.75;;;26.10;56.70;;;;;;6182693;28;80527;-66
2021/09/13 14:10:36;;;;;;;14.40;9.40;;;26.10;56.60;;;;;;6182584;28;80495;-67
2021/09/13 14:13:36;;;;;;;18.80;9.95;;;26.10;56.30;;;;;;6178312;28;80501;-66
2021/09/13 14:16:37;;;;;;;17.13;9.32;;;26.10;56.30;;;;;;6179608;28;81423;-67
2021/09/13 14:19:37;;;;;;;13.70;9.70;;;26.10;56.30;;;;;;6176379;28;80402;-66
2021/09/13 14:22:38;;;;;;;17.65;9.98;;;26.10;56.20;;;;;;6179497;28;80391;-66
2021/09/13 14:25:38;;;;;;;12.48;8.52;;;26.10;56.00;;;;;;6180174;28;83827;-66
2021/09/13 14:28:39;;;;;;;12.75;9.20;;;26.00;55.90;;;;;;6175492;28;84484;-67
2021/09/13 14:31:39;;;;;;;19.20;9.40;;;26.10;55.80;;;;;;6174899;28;80972;-67
2021/09/13 14:34:40;;;;;;;18.10;8.93;;;26.10;55.80;;;;;;6178515;28;80451;-67
2021/09/13 14:37:40;;;;;;;13.82;9.10;;;26.10;55.80;;;;;;6173366;28;80699;-67
2021/09/13 14:40:41;;;;;;;16.13;9.27;;;26.00;55.60;;;;;;6169985;28;80779;-67
2021/09/13 14:43:41;;;;;;;14.77;9.05;;;26.00;55.50;;;;;;6177592;28;80489;-67
2021/09/13 14:46:44;;;;;;;14.05;9.25;;;26.00;55.70;;;;;;6180917;28;80727;-68
2021/09/13 14:49:44;;;;;;;19.95;9.40;;;26.10;55.60;;;;;;6182653;28;81047;-66
2021/09/13 14:52:45;;;;;;;14.15;10.10;;;26.10;55.80;;;;;;6179241;28;80485;-65
2021/09/13 14:55:45;;;;;;;16.20;9.70;;;26.10;55.50;;;;;;6179698;28;83456;-67
2021/09/13 14:58:46;;;;;;;12.57;9.60;;;26.00;54.10;;;;;;6180162;28;82986;-64
2021/09/13 15:01:46;;;;;;;14.00;9.98;;;26.00;53.60;;;;;;6176378;28;80583;-66
2021/09/13 15:04:47;;;;;;;13.80;9.32;;;25.90;52.90;;;;;;6173324;28;89997;-64
2021/09/13 15:07:47;;;;;;;11.80;8.80;;;25.90;53.10;;;;;;6180920;28;82934;-64
2021/09/13 15:10:48;;;;;;;17.20;9.68;;;25.90;53.70;;;;;;6181414;28;80387;-64
2021/09/13 15:13:48;;;;;;;13.77;9.20;;;25.90;53.20;;;;;;6179655;28;82445;-64
2021/09/13 15:16:50;;;;;;;13.52;10.35;;;25.90;53.20;;;;;;6181476;28;80519;-64
2021/09/13 15:19:51;;;;;;;13.70;10.02;;;25.80;53.30;;;;;;6169196;28;82741;-64
2021/09/13 15:22:52;;;;;;;12.95;9.90;;;25.80;53.50;;;;;;6164537;28;82954;-64
2021/09/13 15:25:52;;;;;;;11.48;9.80;;;25.90;53.60;;;;;;6171656;28;83401;-63
2021/09/13 15:28:53;;;;;;;14.15;9.68;;;25.90;53.90;;;;;;6175160;28;81593;-66
2021/09/13 15:31:53;;;;;;;11.82;10.13;;;25.90;53.90;;;;;;6170786;28;80584;-64
2021/09/13 15:34:54;;;;;;;11.10;9.63;;;25.90;54.30;;;;;;6167147;28;82888;-63
2021/09/13 15:37:54;;;;;;;17.05;9.68;;;25.90;54.20;;;;;;6173333;28;84315;-63
2021/09/13 15:40:55;;;;;;;12.23;9.95;;;25.90;54.40;;;;;;6172452;28;80441;-63